createdAt,value
2023-01-22T00:02:58.613Z,2.77
2023-01-22T00:08:00.037Z,2.74
2023-01-22T00:13:01.397Z,2.71
2023-01-22T00:18:02.720Z,2.70
2023-01-22T00:23:04.093Z,2.72
2023-01-22T00:28:06.086Z,2.75
2023-01-22T00:33:07.400Z,2.75
2023-01-22T00:38:09.974Z,2.80
2023-01-22T00:43:11.304Z,2.82
2023-01-22T00:48:12.669Z,2.82
2023-01-22T00:53:13.993Z,2.82
2023-01-22T00:58:15.311Z,2.83
2023-01-22T01:03:32.411Z,2.83
2023-01-22T01:08:35.238Z,2.80
2023-01-22T01:13:42.675Z,2.82
2023-01-22T01:18:44.438Z,2.76
2023-01-22T01:23:46.356Z,2.72
2023-01-22T01:28:47.810Z,2.69
2023-01-22T01:33:49.603Z,2.66
2023-01-22T01:38:51.370Z,2.65
2023-01-22T01:44:09.022Z,2.64
2023-01-22T01:49:26.512Z,2.66
2023-01-22T01:54:28.787Z,2.68
2023-01-22T01:59:33.360Z,2.68
2023-01-22T02:04:34.876Z,2.66
2023-01-22T02:09:36.248Z,2.65
2023-01-22T02:14:40.186Z,2.63
2023-01-22T02:19:42.110Z,2.58
2023-01-22T02:24:43.444Z,2.59
2023-01-22T02:29:45.109Z,2.57
2023-01-22T02:34:46.540Z,2.56
2023-01-22T02:39:47.953Z,2.57
2023-01-22T02:44:50.100Z,2.56
2023-01-22T02:49:51.596Z,2.58
2023-01-22T02:54:53.002Z,2.61
2023-01-22T02:59:54.341Z,2.58
2023-01-22T03:05:03.148Z,2.59
2023-01-22T03:10:04.695Z,2.61
2023-01-22T03:15:24.846Z,2.64
2023-01-22T03:20:45.020Z,2.64
2023-01-22T03:25:46.480Z,2.65
2023-01-22T03:30:48.251Z,2.66
2023-01-22T03:35:50.077Z,2.68
2023-01-22T03:41:00.420Z,2.65
2023-01-22T03:46:12.954Z,2.66
2023-01-22T03:51:17.508Z,2.68
2023-01-22T03:56:20.861Z,2.68
2023-01-22T04:01:24.409Z,2.69
2023-01-22T04:06:26.936Z,2.68
2023-01-22T04:11:28.431Z,2.66
2023-01-22T04:16:30.044Z,2.67
2023-01-22T04:22:02.310Z,2.69
2023-01-22T04:27:04.140Z,2.71
2023-01-22T04:32:05.617Z,2.68
2023-01-22T04:37:39.021Z,2.64
2023-01-22T04:42:40.497Z,2.65
2023-01-22T04:47:46.023Z,2.66
2023-01-22T04:52:50.850Z,2.67
2023-01-22T04:57:56.490Z,2.68
2023-01-22T05:03:01.692Z,2.67
2023-01-22T05:08:04.255Z,2.67
2023-01-22T05:13:09.679Z,2.66
2023-01-22T05:18:12.736Z,2.66
2023-01-22T05:23:21.624Z,2.69
2023-01-22T05:28:23.042Z,2.72
2023-01-22T05:33:35.567Z,2.72
2023-01-22T05:38:38.592Z,2.70
2023-01-22T05:43:40.284Z,2.68
2023-01-22T05:48:45.506Z,2.68
2023-01-22T05:53:50.969Z,2.65
2023-01-22T05:58:52.702Z,2.61
2023-01-22T06:03:54.233Z,2.54
2023-01-22T06:08:59.634Z,2.50
2023-01-22T06:14:06.395Z,2.49
2023-01-22T06:19:08.297Z,2.47
2023-01-22T06:24:17.205Z,2.48
2023-01-22T06:29:18.745Z,2.50
2023-01-22T06:34:20.528Z,2.50
2023-01-22T06:39:21.947Z,2.39
2023-01-22T06:44:37.888Z,2.31
2023-01-22T06:49:39.352Z,2.32
2023-01-22T06:54:40.746Z,2.27
2023-01-22T06:59:42.410Z,2.23
2023-01-22T07:04:43.755Z,2.21
2023-01-22T07:09:45.132Z,2.25
2023-01-22T07:14:46.456Z,2.25
2023-01-22T07:19:47.774Z,2.24
2023-01-22T07:24:49.095Z,2.23
2023-01-22T07:29:50.417Z,2.22
2023-01-22T07:34:51.877Z,2.24
2023-01-22T07:39:53.698Z,2.30
2023-01-22T07:44:55.048Z,2.34
2023-01-22T07:49:56.376Z,2.34
2023-01-22T07:54:57.686Z,2.36
2023-01-22T07:59:59.015Z,2.40
2023-01-22T08:05:00.386Z,2.45
2023-01-22T08:10:01.896Z,2.47
2023-01-22T08:15:03.348Z,2.51
2023-01-22T08:20:05.920Z,2.52
2023-01-22T08:25:07.388Z,2.50
2023-01-22T08:30:11.103Z,2.49
2023-01-22T08:35:13.111Z,2.48
2023-01-22T08:40:14.867Z,2.50
2023-01-22T08:45:16.219Z,2.54
2023-01-22T08:50:17.963Z,2.57
2023-01-22T08:55:19.472Z,2.61
2023-01-22T09:00:21.280Z,2.64
2023-01-22T09:05:22.649Z,2.65
2023-01-22T09:10:24.471Z,2.68
2023-01-22T09:15:26.182Z,2.71
2023-01-22T09:20:27.825Z,2.70
2023-01-22T09:25:30.367Z,2.81
2023-01-22T09:30:32.187Z,2.84
2023-01-22T09:35:33.580Z,2.88
2023-01-22T09:41:02.292Z,2.89
2023-01-22T09:46:05.891Z,2.86
2023-01-22T09:51:07.393Z,2.87
2023-01-22T09:56:14.595Z,2.89
2023-01-22T10:01:16.981Z,2.86
2023-01-22T10:06:21.373Z,2.86
2023-01-22T10:11:22.822Z,2.89
2023-01-22T10:16:24.194Z,2.97
2023-01-22T10:21:27.067Z,3.06
2023-01-22T10:26:34.532Z,3.03
2023-01-22T10:31:37.839Z,3.03
2023-01-22T10:36:39.355Z,3.03
2023-01-22T10:41:41.028Z,3.01
2023-01-22T10:46:42.392Z,3.02
2023-01-22T10:51:52.416Z,2.99
2023-01-22T10:57:03.044Z,3.04
2023-01-22T11:02:18.002Z,3.07
2023-01-22T11:07:32.835Z,3.09
2023-01-22T11:12:36.604Z,3.10
2023-01-22T11:17:39.138Z,3.11
2023-01-22T11:22:43.128Z,3.17
2023-01-22T11:27:54.748Z,3.26
2023-01-22T11:33:05.056Z,3.25
2023-01-22T11:38:06.362Z,3.23
2023-01-22T11:43:20.566Z,3.27
2023-01-22T11:48:34.113Z,3.21
2023-01-22T11:53:47.754Z,3.15
2023-01-22T11:58:49.324Z,3.16
2023-01-22T12:04:00.450Z,3.23
2023-01-22T12:09:14.002Z,3.32
2023-01-22T12:14:34.283Z,3.33
2023-01-22T12:19:50.469Z,3.35
2023-01-22T12:24:56.243Z,3.43
2023-01-22T12:30:01.584Z,3.41
2023-01-22T12:35:08.852Z,3.39
2023-01-22T12:40:25.557Z,3.32
2023-01-22T12:45:45.761Z,3.29
2023-01-22T12:50:55.084Z,3.19
2023-01-22T12:55:59.304Z,3.16
2023-01-22T13:01:10.038Z,3.14
2023-01-22T13:06:18.733Z,3.14
2023-01-22T13:11:33.692Z,3.08
2023-01-22T13:16:36.444Z,3.10
2023-01-22T13:21:37.824Z,3.11
2023-01-22T13:26:39.478Z,3.08
2023-01-22T13:31:40.862Z,3.07
2023-01-22T13:36:46.730Z,3.04
2023-01-22T13:41:50.298Z,3.01
2023-01-22T13:46:51.760Z,2.97
2023-01-22T13:51:54.704Z,2.98
2023-01-22T13:56:56.065Z,2.96
2023-01-22T14:01:57.429Z,2.93
2023-01-22T14:06:58.736Z,2.90
2023-01-22T14:12:00.564Z,2.89
2023-01-22T14:17:01.907Z,2.86
2023-01-22T14:22:03.253Z,2.84
2023-01-22T14:27:04.621Z,2.85
2023-01-22T14:32:06.261Z,2.89
2023-01-22T14:37:07.594Z,2.89
2023-01-22T14:42:09.200Z,2.87
2023-01-22T14:47:10.578Z,2.88
2023-01-22T14:52:11.917Z,2.90
2023-01-22T14:57:13.288Z,2.94
2023-01-22T15:02:14.654Z,2.91
2023-01-22T15:07:16.122Z,2.81
2023-01-22T15:12:17.512Z,2.71
2023-01-22T15:17:18.852Z,2.65
2023-01-22T15:22:20.333Z,2.63
2023-01-22T15:27:22.428Z,2.67
2023-01-22T15:32:23.844Z,2.68
2023-01-22T15:37:25.292Z,2.66
2023-01-22T15:42:26.735Z,2.58
2023-01-22T15:47:28.167Z,2.53
2023-01-22T15:52:29.491Z,2.53
2023-01-22T15:57:30.858Z,2.48
2023-01-22T16:02:32.236Z,2.52
2023-01-22T16:07:33.543Z,2.56
2023-01-22T16:12:34.908Z,2.58
2023-01-22T16:17:36.249Z,2.55
2023-01-22T16:22:37.578Z,2.54
2023-01-22T16:27:39.237Z,2.53
2023-01-22T16:32:45.947Z,2.51
2023-01-22T16:37:47.279Z,2.50
2023-01-22T16:42:57.295Z,2.54
2023-01-22T16:47:58.736Z,2.54
2023-01-22T16:53:00.270Z,2.61
2023-01-22T16:58:01.605Z,2.65
2023-01-22T17:03:03.072Z,2.66
2023-01-22T17:08:04.637Z,2.62
2023-01-22T17:13:06.531Z,2.60
2023-01-22T17:18:08.233Z,2.60
2023-01-22T17:23:10.625Z,2.58
2023-01-22T17:28:12.072Z,2.57
2023-01-22T17:38:19.973Z,2.60
2023-01-22T17:43:21.301Z,2.61
2023-01-22T17:48:22.685Z,2.62
2023-01-22T17:53:23.996Z,2.62
2023-01-22T17:58:25.439Z,2.64
2023-01-22T18:03:26.886Z,2.64
2023-01-22T18:08:29.448Z,2.67
2023-01-22T18:13:30.779Z,2.65
2023-01-22T18:18:32.193Z,2.68
2023-01-22T18:23:33.521Z,2.70
2023-01-22T18:28:35.152Z,2.71
2023-01-22T18:33:37.296Z,2.72
2023-01-22T18:38:39.351Z,2.72
2023-01-22T18:43:41.368Z,2.71
2023-01-22T18:48:43.006Z,2.67
2023-01-22T18:53:44.331Z,2.66
2023-01-22T18:58:46.338Z,2.68
2023-01-22T19:03:49.390Z,2.71
2023-01-22T19:08:56.923Z,2.73
2023-01-22T19:13:59.535Z,2.74
2023-01-22T19:19:10.870Z,2.76
2023-01-22T19:24:13.169Z,2.77
2023-01-22T19:29:17.064Z,2.81
2023-01-22T19:34:23.563Z,2.84
2023-01-22T19:39:25.411Z,2.85
2023-01-22T19:44:26.852Z,2.87
2023-01-22T19:49:28.753Z,2.87
2023-01-22T19:54:30.074Z,2.87
2023-01-22T19:59:31.453Z,2.92
2023-01-22T20:04:33.738Z,2.91
2023-01-22T20:09:35.637Z,2.92
2023-01-22T20:14:38.947Z,2.93
2023-01-22T20:19:42.023Z,2.93
2023-01-22T20:24:44.197Z,2.95
2023-01-22T20:29:46.308Z,2.95
2023-01-22T20:34:48.849Z,2.93
2023-01-22T20:39:50.183Z,2.96
2023-01-22T20:44:51.583Z,2.97
2023-01-22T20:49:52.921Z,2.99
2023-01-22T20:55:01.552Z,2.95
2023-01-22T21:00:04.728Z,2.92
2023-01-22T21:05:06.599Z,2.92
2023-01-22T21:10:08.528Z,2.91
2023-01-22T21:15:10.023Z,2.95
2023-01-22T21:20:12.026Z,2.97
2023-01-22T21:25:13.353Z,2.99
2023-01-22T21:30:14.795Z,3.00
2023-01-22T21:35:16.147Z,2.99
2023-01-22T21:40:20.895Z,3.04
2023-01-22T21:45:41.531Z,3.06
2023-01-22T21:50:43.384Z,3.03
2023-01-22T21:55:51.929Z,3.07
2023-01-22T22:00:54.695Z,3.05
2023-01-22T22:05:56.522Z,3.06
2023-01-22T22:10:57.904Z,3.08
2023-01-22T22:16:00.028Z,3.09
2023-01-22T22:21:03.200Z,3.11
2023-01-22T22:26:05.429Z,3.13
2023-01-22T22:31:11.697Z,3.14
2023-01-22T22:36:14.150Z,3.10
2023-01-22T22:41:22.932Z,3.14
2023-01-22T22:46:29.025Z,3.18
2023-01-22T22:51:31.856Z,3.19
2023-01-22T22:56:33.599Z,3.21
2023-01-22T23:01:37.543Z,3.24
2023-01-22T23:06:39.237Z,3.22
2023-01-22T23:11:43.532Z,3.22
2023-01-22T23:16:44.963Z,3.20
2023-01-22T23:21:48.878Z,3.13
2023-01-22T23:26:50.495Z,3.13
2023-01-22T23:31:53.694Z,3.13
2023-01-22T23:36:55.270Z,3.11
2023-01-22T23:41:56.577Z,3.10
2023-01-22T23:46:57.888Z,3.13
2023-01-22T23:51:59.472Z,3.12
2023-01-22T23:57:00.795Z,3.12
